Time;durP1;ratioP1;P1;durP2;ratioP2;P2;SDS_P1;SDS_P2;PMS_P1;PMS_P2;Temp;Humidity;BMP_temperature;BMP_pressure;BME280_temperature;BME280_humidity;BME280_pressure;Samples;Min_cycle;Max_cycle;Signal;HPM_P1;HPM_P2
2023/02/22 00:00:00;;;;;;;69.05;28.60;;;;;;;-146.25;100.00;52473.63;2071909;28;34063;-77
2023/02/22 00:01:18;;;;;;;70.57;29.88;;;;;;;-146.25;100.00;52459.44;2072104;28;20054;-77
2023/02/22 00:02:27;;;;;;;68.47;28.40;;;;;;;-146.25;100.00;52455.38;2072183;28;32666;-77
2023/02/22 00:03:31;;;;;;;65.95;27.25;;;;;;;-146.25;100.00;52463.50;2071769;28;35256;-77
2023/02/22 00:04:34;;;;;;;69.00;27.98;;;;;;;-146.25;100.00;52473.63;2072058;28;35318;-77
2023/02/22 00:05:38;;;;;;;74.47;30.55;;;;;;;-146.25;100.00;52481.75;2071239;28;39114;-77
2023/02/22 00:06:40;;;;;;;73.05;29.95;;;;;;;-146.25;100.00;52479.72;2071603;28;33179;-77
2023/02/22 00:07:43;;;;;;;70.82;29.73;;;;;;;-146.25;100.00;52465.53;2062874;28;30723;-77
2023/02/22 00:08:48;;;;;;;66.90;28.25;;;;;;;-146.25;100.00;52487.81;2063471;28;37462;-77
2023/02/22 00:09:50;;;;;;;72.93;29.70;;;;;;;-146.25;100.00;52491.88;2072760;28;20129;-77
2023/02/22 00:10:54;;;;;;;67.47;28.20;;;;;;;-146.25;100.00;52433.06;2068170;28;35892;-77
2023/02/22 00:11:57;;;;;;;74.30;30.00;;;;;;;-146.25;100.00;52477.69;2071437;28;33503;-77
2023/02/22 00:12:59;;;;;;;74.85;30.77;;;;;;;-146.25;100.00;52504.03;2070727;28;35869;-77
2023/02/22 00:14:01;;;;;;;69.95;29.05;;;;;;;-146.25;100.00;52469.56;2071254;28;35158;-77
2023/02/22 00:15:04;;;;;;;69.78;27.67;;;;;;;-146.25;100.00;52493.91;2071581;28;34805;-77
2023/02/22 00:16:07;;;;;;;72.03;29.15;;;;;;;-146.25;100.00;52485.81;2071635;28;32745;-77
2023/02/22 00:17:08;;;;;;;79.43;31.73;;;;;;;-146.25;100.00;52453.34;2071771;28;35414;-77
2023/02/22 00:18:17;;;;;;;72.70;29.33;;;;;;;-146.25;100.00;52461.47;2072450;28;20026;-77
2023/02/22 00:19:19;;;;;;;68.50;28.60;;;;;;;-146.25;100.00;52497.97;2070978;28;38078;-77
2023/02/22 00:20:22;;;;;;;75.22;29.83;;;;;;;-146.25;100.00;52467.56;2071134;28;33811;-77
2023/02/22 00:21:24;;;;;;;77.47;30.77;;;;;;;-146.25;100.00;52487.81;2071453;28;35028;-77
2023/02/22 00:22:25;;;;;;;74.18;30.02;;;;;;;-146.25;100.00;52483.78;2071775;28;33962;-77
2023/02/22 00:23:30;;;;;;;74.22;29.77;;;;;;;-146.25;100.00;52455.38;2071539;28;35457;-77
2023/02/22 00:24:32;;;;;;;69.97;29.30;;;;;;;-146.25;100.00;52435.09;2071604;28;34802;-77
2023/02/22 00:25:34;;;;;;;78.35;30.85;;;;;;;-146.25;100.00;52435.09;2071373;28;30911;-77
2023/02/22 00:26:38;;;;;;;76.32;29.73;;;;;;;-146.25;100.00;52457.41;2070969;28;32574;-76
2023/02/22 00:27:40;;;;;;;70.05;29.08;;;;;;;-146.25;100.00;52461.47;2070045;28;34403;-77
2023/02/22 00:28:42;;;;;;;74.95;29.67;;;;;;;-146.25;100.00;52471.59;2071429;28;29054;-77
2023/02/22 00:29:45;;;;;;;68.13;27.48;;;;;;;-146.25;100.00;52475.66;2071112;28;26383;-77
2023/02/22 00:30:47;;;;;;;74.63;29.60;;;;;;;-146.25;100.00;52495.94;2063062;28;20859;-77
2023/02/22 00:31:48;;;;;;;73.00;28.70;;;;;;;-146.25;100.00;52477.69;2063106;28;31757;-77
2023/02/22 00:32:51;;;;;;;70.47;29.00;;;;;;;-146.25;100.00;52471.59;2071482;28;20918;-77
2023/02/22 00:33:53;;;;;;;74.82;29.40;;;;;;;-146.25;100.00;52447.28;2062770;28;28568;-77
2023/02/22 00:34:55;;;;;;;75.90;30.73;;;;;;;-146.25;100.00;52489.84;2064195;28;20051;-77
2023/02/22 00:35:59;;;;;;;75.45;30.20;;;;;;;-146.25;100.00;52473.63;2071415;28;20584;-77
2023/02/22 00:37:03;;;;;;;79.93;31.90;;;;;;;-146.25;100.00;52463.50;2071743;28;20034;-77
2023/02/22 00:38:05;;;;;;;73.70;30.52;;;;;;;-146.25;100.00;52493.91;2072135;28;20246;-77
2023/02/22 00:39:08;;;;;;;74.55;30.08;;;;;;;-146.25;100.00;52451.31;2072011;28;21042;-77
2023/02/22 00:40:14;;;;;;;71.82;28.35;;;;;;;-146.25;100.00;52479.72;2070439;28;26617;-76
2023/02/22 00:41:15;;;;;;;69.93;28.27;;;;;;;-146.25;100.00;52493.91;2071101;28;25342;-77
2023/02/22 00:42:18;;;;;;;80.60;31.20;;;;;;;-146.25;100.00;52455.38;2071080;28;30702;-77
2023/02/22 00:43:20;;;;;;;74.15;30.00;;;;;;;-146.25;100.00;52497.97;2070978;28;27765;-77
2023/02/22 00:44:22;;;;;;;79.47;31.67;;;;;;;-146.25;100.00;52453.34;2071317;28;23875;-77
2023/02/22 00:45:27;;;;;;;73.18;29.33;;;;;;;-146.25;100.00;52489.84;2070972;28;24889;-77
2023/02/22 00:46:29;;;;;;;81.10;30.85;;;;;;;-146.25;100.00;52491.88;2071584;28;20041;-76
2023/02/22 00:47:32;;;;;;;69.10;28.63;;;;;;;-146.25;100.00;52485.81;2062335;28;33773;-77
2023/02/22 00:48:33;;;;;;;71.78;28.67;;;;;;;-146.25;100.00;52449.31;2063052;28;31330;-76
2023/02/22 00:49:38;;;;;;;70.88;28.90;;;;;;;-146.25;100.00;52497.97;2071687;28;20518;-77
2023/02/22 00:50:40;;;;;;;74.75;30.00;;;;;;;-146.25;100.00;52479.72;2070791;28;25016;-77
2023/02/22 00:51:44;;;;;;;75.70;31.77;;;;;;;-146.25;100.00;52465.53;2071238;28;20038;-77
2023/02/22 00:52:47;;;;;;;71.55;29.40;;;;;;;-146.25;100.00;52455.38;2070632;28;30998;-77
2023/02/22 00:53:49;;;;;;;70.13;29.83;;;;;;;-146.25;100.00;52500.00;2071056;28;27042;-77
2023/02/22 00:54:50;;;;;;;72.22;29.02;;;;;;;-146.25;100.00;52485.81;2071370;28;21743;-77
2023/02/22 00:55:53;;;;;;;63.05;26.23;;;;;;;-146.25;100.00;52461.47;2071390;28;27972;-77
2023/02/22 00:56:57;;;;;;;74.95;30.17;;;;;;;-146.25;100.00;52475.66;2071134;28;20047;-77
2023/02/22 00:58:01;;;;;;;78.32;30.63;;;;;;;-146.25;100.00;52497.97;2071229;28;21947;-77
2023/02/22 00:59:03;;;;;;;73.40;30.70;;;;;;;-146.25;100.00;52481.75;2071257;28;29863;-77
2023/02/22 01:00:11;;;;;;;73.57;30.30;;;;;;;-146.25;100.00;52459.44;2071740;28;28518;-77
2023/02/22 01:01:13;;;;;;;70.35;29.35;;;;;;;-146.25;100.00;52497.97;2071441;28;34868;-77
2023/02/22 01:02:16;;;;;;;71.05;28.00;;;;;;;-146.25;100.00;52441.19;2071899;28;20128;-77
2023/02/22 01:03:19;;;;;;;80.15;31.55;;;;;;;-146.25;100.00;52508.09;2071686;28;24539;-77
2023/02/22 01:04:21;;;;;;;66.63;26.75;;;;;;;-146.25;100.00;52473.63;2072054;28;20899;-77
2023/02/22 01:05:28;;;;;;;78.25;30.92;;;;;;;-146.25;100.00;52481.75;2071911;28;20047;-77
2023/02/22 01:06:30;;;;;;;76.82;30.33;;;;;;;-146.25;100.00;52447.28;2071794;28;27084;-77
2023/02/22 01:07:35;;;;;;;73.18;28.13;;;;;;;-146.25;100.00;52471.59;2071495;28;20073;-77
2023/02/22 01:08:37;;;;;;;71.13;28.40;;;;;;;-146.25;100.00;52477.69;2071326;28;31823;-77
2023/02/22 01:09:40;;;;;;;77.60;30.80;;;;;;;-146.25;100.00;52461.47;2071988;28;20043;-78
2023/02/22 01:10:42;;;;;;;75.60;29.52;;;;;;;-146.25;100.00;52485.81;2071110;28;26567;-77
2023/02/22 01:11:44;;;;;;;62.80;27.30;;;;;;;-146.25;100.00;52469.56;2071148;28;20042;-77
2023/02/22 01:12:46;;;;;;;75.22;31.00;;;;;;;-146.25;100.00;52493.91;2070968;28;20046;-77
2023/02/22 01:13:48;;;;;;;72.55;29.27;;;;;;;-146.25;100.00;52467.56;2070737;28;31331;-77
2023/02/22 01:14:50;;;;;;;73.22;29.38;;;;;;;-146.25;100.00;52475.66;2070596;28;22542;-77
2023/02/22 01:15:52;;;;;;;69.38;28.63;;;;;;;-146.25;100.00;52459.44;2071070;28;20038;-77
2023/02/22 01:16:55;;;;;;;73.95;27.63;;;;;;;-146.25;100.00;52481.75;2063147;28;26178;-77
2023/02/22 01:17:58;;;;;;;71.07;28.50;;;;;;;-146.25;100.00;52461.47;2063603;28;20050;-77
2023/02/22 01:19:00;;;;;;;66.70;27.10;;;;;;;-146.25;100.00;52497.97;2071350;28;20043;-77
2023/02/22 01:20:13;;;;;;;63.13;25.75;;;;;;;-146.25;100.00;52479.72;2071600;28;23766;-77
2023/02/22 01:21:15;;;;;;;69.95;27.75;;;;;;;-146.25;100.00;52489.84;2062756;28;24460;-76
2023/02/22 01:22:18;;;;;;;70.85;28.63;;;;;;;-146.25;100.00;52449.31;2062389;28;32497;-77
2023/02/22 01:23:20;;;;;;;71.30;29.38;;;;;;;-146.25;100.00;52465.53;2071189;28;30278;-77
2023/02/22 01:24:22;;;;;;;69.90;27.48;;;;;;;-146.25;100.00;52483.78;2071616;28;32369;-77
2023/02/22 01:25:27;;;;;;;74.97;28.90;;;;;;;-146.25;100.00;52467.56;2071382;28;27334;-76
2023/02/22 01:26:29;;;;;;;68.43;28.58;;;;;;;-146.25;100.00;52487.81;2071683;28;27273;-77
2023/02/22 01:27:31;;;;;;;66.45;26.75;;;;;;;-146.25;100.00;52465.53;2070979;28;21185;-77
2023/02/22 01:28:33;;;;;;;65.63;26.33;;;;;;;-146.25;100.00;52461.47;2070524;28;30334;-77
2023/02/22 01:29:36;;;;;;;74.28;30.02;;;;;;;-146.25;100.00;52467.56;2071752;28;20919;-77
2023/02/22 01:30:40;;;;;;;69.50;27.75;;;;;;;-146.25;100.00;52457.41;2071614;28;20038;-77
2023/02/22 01:31:49;;;;;;;70.57;28.70;;;;;;;-146.25;100.00;52465.53;2071232;28;30568;-77
2023/02/22 01:32:51;;;;;;;70.53;27.13;;;;;;;-146.25;100.00;52408.75;2071314;28;29542;-77
2023/02/22 01:33:53;;;;;;;70.50;28.25;;;;;;;-146.25;100.00;52457.41;2070893;28;22423;-77
2023/02/22 01:34:55;;;;;;;71.07;28.83;;;;;;;-146.25;100.00;52477.69;2070726;28;32832;-77
2023/02/22 01:35:59;;;;;;;68.63;27.80;;;;;;;-146.25;100.00;52453.34;2071733;28;20126;-77
2023/02/22 01:37:01;;;;;;;71.30;28.77;;;;;;;-146.25;100.00;52457.41;2062899;28;20090;-77
2023/02/22 01:38:04;;;;;;;65.15;27.83;;;;;;;-146.25;100.00;52473.63;2063445;28;20038;-77
2023/02/22 01:39:06;;;;;;;72.78;27.85;;;;;;;-146.25;100.00;52502.03;2064143;28;20051;-77
2023/02/22 01:40:19;;;;;;;65.78;28.58;;;;;;;-146.25;100.00;52471.59;2064714;28;20043;-77
2023/02/22 01:41:21;;;;;;;71.28;27.45;;;;;;;-146.25;100.00;52441.19;2064126;28;20043;-77
2023/02/22 01:42:23;;;;;;;62.47;25.58;;;;;;;-146.25;100.00;52445.25;2064373;28;20046;-78
2023/02/22 01:43:29;;;;;;;66.63;28.05;;;;;;;-146.25;100.00;52493.91;2072108;28;30299;-77
2023/02/22 01:44:36;;;;;;;68.43;27.27;;;;;;;-146.25;100.00;52453.34;2063876;28;30582;-77
2023/02/22 01:45:46;;;;;;;69.68;27.25;;;;;;;-146.25;100.00;52481.75;2056767;28;33940;-77
2023/02/22 01:46:48;;;;;;;64.60;27.30;;;;;;;-146.25;100.00;52439.16;2065649;28;20043;-77
2023/02/22 01:47:50;;;;;;;69.95;28.70;;;;;;;-146.25;100.00;52489.84;2072542;28;20045;-77
2023/02/22 01:49:05;;;;;;;72.57;29.05;;;;;;;-146.25;100.00;52465.53;2072008;28;31083;-77
2023/02/22 01:50:09;;;;;;;64.28;26.33;;;;;;;-146.25;100.00;52487.81;2072364;28;20857;-77
2023/02/22 01:51:25;;;;;;;61.03;25.10;;;;;;;-146.25;100.00;52500.00;2072728;28;20256;-77
2023/02/22 01:52:27;;;;;;;66.70;26.33;;;;;;;-146.25;100.00;52473.63;2063736;28;24611;-77
2023/02/22 01:53:38;;;;;;;70.38;28.75;;;;;;;-146.25;100.00;52504.03;2064492;28;28844;-77
2023/02/22 01:54:53;;;;;;;67.45;27.33;;;;;;;-146.25;100.00;52439.16;2072388;28;20042;-77
2023/02/22 01:55:56;;;;;;;65.50;27.92;;;;;;;-146.25;100.00;52473.63;2072792;28;20039;-77
2023/02/22 01:57:34;;;;;;;62.67;26.83;;;;;;;-146.25;100.00;52477.69;2072392;28;20347;-77
2023/02/22 01:58:43;;;;;;;60.72;24.92;;;;;;;-146.25;100.00;52461.47;2055474;28;20066;-78
2023/02/22 01:59:52;;;;;;;57.60;25.67;;;;;;;-146.25;100.00;52437.13;2064692;28;29736;-77
2023/02/22 02:00:56;;;;;;;67.88;27.98;;;;;;;-146.25;100.00;52479.72;2073389;28;20042;-77
2023/02/22 02:01:59;;;;;;;62.38;25.13;;;;;;;-146.25;100.00;52465.53;2072564;28;20030;-77
2023/02/22 02:03:09;;;;;;;63.00;26.05;;;;;;;-146.25;100.00;52422.94;2072095;28;29851;-77
2023/02/22 02:04:18;;;;;;;67.47;27.30;;;;;;;-146.25;100.00;52451.31;2073026;28;20038;-77
2023/02/22 02:05:20;;;;;;;71.20;28.70;;;;;;;-146.25;100.00;52469.56;2072183;28;30350;-77
2023/02/22 02:06:22;;;;;;;64.03;26.15;;;;;;;-146.25;100.00;52475.66;2072397;28;20806;-77
2023/02/22 02:07:23;;;;;;;64.35;26.65;;;;;;;-146.25;100.00;52485.81;2072465;28;20081;-77
2023/02/22 02:08:50;;;;;;;69.07;27.35;;;;;;;-146.25;100.00;52445.25;2072381;28;20050;-77
2023/02/22 02:10:01;;;;;;;69.22;28.00;;;;;;;-146.25;100.00;52469.56;2063891;28;20043;-77
2023/02/22 02:11:07;;;;;;;64.28;26.73;;;;;;;-146.25;100.00;52459.44;2064538;28;31840;-77
2023/02/22 02:12:14;;;;;;;78.32;29.50;;;;;;;-146.25;100.00;52493.91;2072220;28;20081;-77
2023/02/22 02:13:16;;;;;;;67.18;27.83;;;;;;;-146.25;100.00;52457.41;2071767;28;34562;-77
2023/02/22 02:14:20;;;;;;;74.72;29.20;;;;;;;-146.25;100.00;52463.50;2072069;28;20049;-77
2023/02/22 02:15:28;;;;;;;72.20;28.83;;;;;;;-146.25;100.00;52437.13;2072032;28;20055;-77
2023/02/22 02:16:42;;;;;;;68.05;28.58;;;;;;;-146.25;100.00;52439.16;2072831;28;27101;-77
2023/02/22 02:17:47;;;;;;;67.95;28.20;;;;;;;-146.25;100.00;52443.22;2072090;28;29526;-78
2023/02/22 02:18:51;;;;;;;61.25;27.13;;;;;;;-146.25;100.00;52467.56;2072752;28;20263;-77
2023/02/22 02:20:12;;;;;;;66.28;28.83;;;;;;;-146.25;100.00;52461.47;2072312;28;20051;-78
2023/02/22 02:21:45;;;;;;;69.75;27.60;;;;;;;-146.25;100.00;52475.66;2072605;28;20102;-77
2023/02/22 02:23:26;;;;;;;68.72;28.13;;;;;;;-146.25;100.00;52475.66;2072715;28;20038;-77
2023/02/22 02:25:25;;;;;;;69.57;28.33;;;;;;;-146.25;100.00;52461.47;2070323;28;29246;-77
2023/02/22 02:26:48;;;;;;;68.63;27.30;;;;;;;-146.25;100.00;52457.41;2039575;28;20846;-77
2023/02/22 02:28:18;;;;;;;65.13;26.58;;;;;;;-146.25;100.00;52485.81;2034253;29;27238;-77
2023/02/22 02:29:50;;;;;;;73.18;26.02;;;;;;;-146.25;100.00;52506.06;2067699;28;31116;-77
2023/02/22 02:31:01;;;;;;;74.68;27.55;;;;;;;-146.25;100.00;52439.16;2072729;28;27206;-77
2023/02/22 02:32:08;;;;;;;78.65;28.90;;;;;;;-146.25;100.00;52461.47;2072260;28;33884;-77
2023/02/22 02:33:28;;;;;;;74.50;29.02;;;;;;;-146.25;100.00;52475.66;2063748;28;20253;-77
2023/02/22 02:34:44;;;;;;;77.05;28.75;;;;;;;-146.25;100.00;52483.78;2066393;28;20035;-78
2023/02/22 02:35:56;;;;;;;86.68;30.08;;;;;;;-146.25;100.00;52447.28;2064348;28;20046;-77
2023/02/22 02:37:09;;;;;;;81.35;29.40;;;;;;;-146.25;100.00;52457.41;2067578;28;20042;-77
2023/02/22 02:38:29;;;;;;;78.13;28.48;;;;;;;-146.25;100.00;52481.75;2073142;28;20050;-77
2023/02/22 02:40:00;;;;;;;85.80;30.55;;;;;;;-146.25;100.00;52477.69;2063731;28;24909;-77
2023/02/22 02:41:12;;;;;;;86.63;30.13;;;;;;;-146.25;100.00;52424.97;2067574;28;33387;-77
2023/02/22 02:42:21;;;;;;;89.50;30.88;;;;;;;-146.25;100.00;52477.69;2072270;28;20042;-77
2023/02/22 02:44:00;;;;;;;89.22;30.95;;;;;;;-146.25;100.00;52469.56;2072091;28;28194;-77
2023/02/22 02:45:18;;;;;;;88.00;30.80;;;;;;;-146.25;100.00;52449.31;2072074;28;20038;-77
2023/02/22 02:46:49;;;;;;;86.88;29.75;;;;;;;-146.25;100.00;52524.31;2064086;28;20038;-77
2023/02/22 02:47:57;;;;;;;84.17;28.30;;;;;;;-146.25;100.00;52469.56;2068436;28;20085;-77
2023/02/22 02:49:12;;;;;;;91.63;31.60;;;;;;;-146.25;100.00;52477.69;2071833;28;35432;-78
2023/02/22 02:50:28;;;;;;;88.05;31.75;;;;;;;-146.25;100.00;52497.97;2071754;28;26582;-77
2023/02/22 02:51:40;;;;;;;89.05;30.48;;;;;;;-146.25;100.00;52479.72;2063665;28;20919;-77
2023/02/22 02:52:45;;;;;;;90.32;31.38;;;;;;;-146.25;100.00;52453.34;2065168;28;20977;-77
2023/02/22 02:53:50;;;;;;;83.93;30.50;;;;;;;-146.25;100.00;52449.31;2063355;28;37089;-77
2023/02/22 02:54:54;;;;;;;76.97;30.02;;;;;;;-146.25;100.00;52479.72;2063525;28;28431;-77
2023/02/22 02:55:59;;;;;;;83.20;30.55;;;;;;;-146.25;100.00;52439.16;2063103;28;30816;-77
2023/02/22 02:57:01;;;;;;;88.60;31.67;;;;;;;-146.25;100.00;52467.56;2065034;28;20090;-77
2023/02/22 02:58:06;;;;;;;84.97;30.73;;;;;;;-146.25;100.00;52481.75;2071359;28;31731;-77
2023/02/22 02:59:24;;;;;;;89.40;30.38;;;;;;;-146.25;100.00;52473.63;2063555;28;20788;-77
2023/02/22 03:00:38;;;;;;;88.13;31.00;;;;;;;-146.25;100.00;52459.44;2058789;28;36131;-77
2023/02/22 03:01:58;;;;;;;86.13;30.00;;;;;;;-146.25;100.00;52453.34;2065410;28;20088;-77
2023/02/22 03:03:47;;;;;;;93.28;31.52;;;;;;;-146.25;100.00;52469.56;2071868;28;30659;-77
2023/02/22 03:05:07;;;;;;;88.20;30.30;;;;;;;-146.25;100.00;52471.59;2065513;28;27118;-77
2023/02/22 03:06:40;;;;;;;88.88;31.30;;;;;;;-146.25;100.00;52459.44;2072189;28;32122;-76
2023/02/22 03:08:14;;;;;;;86.75;30.92;;;;;;;-146.25;100.00;52477.69;2071329;28;28999;-77
2023/02/22 03:09:48;;;;;;;86.57;30.48;;;;;;;-146.25;100.00;52483.78;2076333;28;20046;-78
2023/02/22 03:11:21;;;;;;;89.95;31.08;;;;;;;-146.25;100.00;52431.06;2073064;28;37100;-77
2023/02/22 03:12:31;;;;;;;87.43;29.00;;;;;;;-146.25;100.00;52437.13;2071428;28;21808;-77
2023/02/22 03:13:48;;;;;;;88.00;30.30;;;;;;;-146.25;100.00;52473.63;2064467;28;20034;-77
2023/02/22 03:15:41;;;;;;;84.65;30.13;;;;;;;-146.25;100.00;52451.31;2065434;28;22215;-77
2023/02/22 03:16:54;;;;;;;96.22;32.63;;;;;;;-146.25;100.00;52453.34;2055144;28;22021;-76
2023/02/22 03:18:09;;;;;;;87.13;31.00;;;;;;;-146.25;100.00;52451.31;2071808;28;32943;-77
2023/02/22 03:19:37;;;;;;;96.45;31.80;;;;;;;-146.25;100.00;52467.56;2071540;28;23872;-77
2023/02/22 03:21:13;;;;;;;97.07;32.20;;;;;;;-146.25;100.00;52475.66;2063435;28;20046;-77
2023/02/22 03:22:49;;;;;;;88.78;30.85;;;;;;;-146.25;100.00;52443.22;2060203;28;23949;-77
2023/02/22 03:24:51;;;;;;;87.25;30.15;;;;;;;-146.25;100.00;52445.25;2039646;28;29326;-76
2023/02/22 03:26:06;;;;;;;96.85;31.27;;;;;;;-146.25;100.00;52487.81;2055171;28;20047;-77
2023/02/22 03:27:22;;;;;;;86.85;30.80;;;;;;;-146.25;100.00;52461.47;2047119;28;20090;-76
2023/02/22 03:28:28;;;;;;;82.72;29.90;;;;;;;-146.25;100.00;52447.28;2051540;28;20043;-77
2023/02/22 03:29:34;;;;;;;89.55;29.67;;;;;;;-146.25;100.00;52459.44;2047500;28;20205;-77
2023/02/22 03:30:54;;;;;;;95.13;30.60;;;;;;;-146.25;100.00;52512.16;2048569;28;20039;-78
2023/02/22 03:32:00;;;;;;;80.32;27.85;;;;;;;-146.25;100.00;52459.44;2063444;28;24739;-77
2023/02/22 03:33:15;;;;;;;86.63;30.00;;;;;;;-146.25;100.00;52441.19;2058887;28;20120;-77
2023/02/22 03:34:31;;;;;;;94.60;32.72;;;;;;;-146.25;100.00;52469.56;2063521;28;20916;-77
2023/02/22 03:35:47;;;;;;;97.35;31.13;;;;;;;-146.25;100.00;52475.66;2057387;28;20850;-76
2023/02/22 03:37:00;;;;;;;90.90;29.90;;;;;;;-146.25;100.00;52493.91;2065695;28;20043;-77
2023/02/22 03:38:08;;;;;;;97.05;31.80;;;;;;;-146.25;100.00;52479.72;2070543;28;20181;-77
2023/02/22 03:39:16;;;;;;;87.22;31.42;;;;;;;-146.25;100.00;52459.44;2070734;28;20104;-76
2023/02/22 03:40:33;;;;;;;101.10;32.08;;;;;;;-146.25;100.00;52463.50;2064965;28;20039;-76
2023/02/22 03:41:39;;;;;;;91.25;30.98;;;;;;;-146.25;100.00;52457.41;2071469;28;20228;-77
2023/02/22 03:42:51;;;;;;;81.57;28.95;;;;;;;-146.25;100.00;52453.34;2063491;28;21068;-77
2023/02/22 03:43:59;;;;;;;84.97;29.23;;;;;;;-146.25;100.00;52502.03;2063732;28;20030;-76
2023/02/22 03:45:05;;;;;;;82.47;28.30;;;;;;;-146.25;100.00;52491.88;2064432;28;20835;-76
2023/02/22 03:46:09;;;;;;;72.40;26.25;;;;;;;-146.25;100.00;52463.50;2072481;28;21020;-77
2023/02/22 03:47:21;;;;;;;89.28;30.50;;;;;;;-146.25;100.00;52483.78;2072621;28;20042;-77
2023/02/22 03:48:50;;;;;;;85.35;30.60;;;;;;;-146.25;100.00;52473.63;2071853;28;20799;-77
2023/02/22 03:50:00;;;;;;;88.72;30.77;;;;;;;-146.25;100.00;52487.81;2071503;28;20871;-76
2023/02/22 03:51:04;;;;;;;84.32;29.67;;;;;;;-146.25;100.00;52479.72;2070676;28;20042;-77
2023/02/22 03:52:07;;;;;;;77.40;27.63;;;;;;;-146.25;100.00;52451.31;2071440;28;20083;-76
2023/02/22 03:53:13;;;;;;;77.53;28.70;;;;;;;-146.25;100.00;52459.44;2064755;28;20089;-77
2023/02/22 03:54:16;;;;;;;82.50;30.02;;;;;;;-146.25;100.00;52479.72;2063033;28;20907;-77
2023/02/22 03:55:22;;;;;;;87.25;29.58;;;;;;;-146.25;100.00;52429.03;2064013;28;20043;-76
2023/02/22 03:56:37;;;;;;;79.50;28.90;;;;;;;-146.25;100.00;52445.25;2071213;28;20128;-77
2023/02/22 03:57:45;;;;;;;78.32;28.45;;;;;;;-146.25;100.00;52447.28;2069686;28;20062;-76
2023/02/22 03:58:48;;;;;;;83.03;30.20;;;;;;;-146.25;100.00;52477.69;2063425;28;20046;-77
2023/02/22 03:59:52;;;;;;;76.78;28.77;;;;;;;-146.25;100.00;52471.59;2064856;28;20959;-76
2023/02/22 04:00:54;;;;;;;75.20;28.55;;;;;;;-146.25;100.00;52455.38;2071788;28;23977;-76
2023/02/22 04:01:56;;;;;;;73.75;27.58;;;;;;;-146.25;100.00;52453.34;2071166;28;20223;-76
2023/02/22 04:02:59;;;;;;;77.20;29.40;;;;;;;-146.25;100.00;52463.50;2070954;28;20128;-77
2023/02/22 04:04:02;;;;;;;77.80;29.33;;;;;;;-146.25;100.00;52459.44;2063557;28;20055;-77
2023/02/22 04:05:06;;;;;;;71.88;27.40;;;;;;;-146.25;100.00;52461.47;2063954;28;20043;-76
2023/02/22 04:06:09;;;;;;;75.15;28.20;;;;;;;-146.25;100.00;52495.94;2071516;28;20540;-77
2023/02/22 04:07:11;;;;;;;71.03;27.83;;;;;;;-146.25;100.00;52500.00;2063561;28;20142;-77
2023/02/22 04:08:15;;;;;;;73.38;28.50;;;;;;;-146.25;100.00;52465.53;2063580;28;20178;-77
2023/02/22 04:09:18;;;;;;;75.22;27.80;;;;;;;-146.25;100.00;52481.75;2071192;28;31860;-77
2023/02/22 04:10:21;;;;;;;70.43;27.77;;;;;;;-146.25;100.00;52449.31;2071547;28;20038;-77
2023/02/22 04:11:23;;;;;;;68.75;27.58;;;;;;;-146.25;100.00;52453.34;2070259;28;20042;-77
2023/02/22 04:12:25;;;;;;;68.88;27.33;;;;;;;-146.25;100.00;52477.69;2071622;28;20038;-76
2023/02/22 04:13:31;;;;;;;72.57;27.25;;;;;;;-146.25;100.00;52437.13;2063358;28;20042;-76
2023/02/22 04:14:33;;;;;;;67.03;28.17;;;;;;;-146.25;100.00;52449.31;2063665;28;20924;-77
2023/02/22 04:15:35;;;;;;;67.40;27.60;;;;;;;-146.25;100.00;52506.06;2071946;28;20130;-76
2023/02/22 04:16:39;;;;;;;67.45;28.48;;;;;;;-146.25;100.00;52445.25;2063333;28;20051;-76
2023/02/22 04:17:45;;;;;;;61.28;26.20;;;;;;;-146.25;100.00;52469.56;2055696;28;20055;-76
2023/02/22 04:18:48;;;;;;;65.85;27.13;;;;;;;-146.25;100.00;52502.03;2055955;28;20075;-76
2023/02/22 04:19:53;;;;;;;55.83;23.92;;;;;;;-146.25;100.00;52504.03;2063733;28;20039;-76
2023/02/22 04:20:59;;;;;;;66.40;27.67;;;;;;;-146.25;100.00;52489.84;2071661;28;20030;-76
2023/02/22 04:22:06;;;;;;;60.58;25.92;;;;;;;-146.25;100.00;52473.63;2071701;28;20140;-77
2023/02/22 04:23:09;;;;;;;60.35;25.60;;;;;;;-146.25;100.00;52483.78;2070862;28;20054;-77
2023/02/22 04:24:15;;;;;;;63.00;25.60;;;;;;;-146.25;100.00;52461.47;2071551;28;20824;-76
2023/02/22 04:25:17;;;;;;;57.78;24.85;;;;;;;-146.25;100.00;52489.84;2071459;28;20034;-76
2023/02/22 04:26:25;;;;;;;58.15;24.65;;;;;;;-146.25;100.00;52471.59;2071926;28;20681;-77
2023/02/22 04:27:30;;;;;;;52.55;24.05;;;;;;;-146.25;100.00;52461.47;2071448;28;20046;-77
2023/02/22 04:28:31;;;;;;;57.22;25.08;;;;;;;-146.25;100.00;52437.13;2070608;28;20092;-77
2023/02/22 04:29:51;;;;;;;57.70;26.30;;;;;;;-146.25;100.00;52477.69;2063342;28;20911;-77
2023/02/22 04:30:53;;;;;;;50.95;23.52;;;;;;;-146.25;100.00;52441.19;2055237;28;20089;-77
2023/02/22 04:31:56;;;;;;;58.28;24.95;;;;;;;-146.25;100.00;52445.25;2055182;28;20888;-77
2023/02/22 04:32:57;;;;;;;53.85;24.38;;;;;;;-146.25;100.00;52461.47;2054385;28;25497;-77
2023/02/22 04:34:02;;;;;;;57.53;25.45;;;;;;;-146.25;100.00;52459.44;2062357;28;31167;-77
2023/02/22 04:35:09;;;;;;;60.10;26.63;;;;;;;-146.25;100.00;52469.56;2071170;28;20163;-77
2023/02/22 04:36:12;;;;;;;50.72;23.15;;;;;;;-146.25;100.00;52485.81;2063402;28;20039;-76
2023/02/22 04:37:14;;;;;;;53.05;24.33;;;;;;;-146.25;100.00;52457.41;2063516;28;20086;-77
2023/02/22 04:38:16;;;;;;;52.95;25.40;;;;;;;-146.25;100.00;52469.56;2071398;28;20038;-77
2023/02/22 04:39:18;;;;;;;57.10;25.60;;;;;;;-146.25;100.00;52469.56;2071364;28;26356;-76
2023/02/22 04:40:20;;;;;;;51.30;24.42;;;;;;;-146.25;100.00;52455.38;2062885;28;20153;-76
2023/02/22 04:41:22;;;;;;;56.15;24.65;;;;;;;-146.25;100.00;52481.75;2062894;28;27316;-77
2023/02/22 04:42:27;;;;;;;52.30;24.83;;;;;;;-146.25;100.00;52463.50;2063211;28;20938;-77
2023/02/22 04:43:31;;;;;;;52.63;25.75;;;;;;;-146.25;100.00;52473.63;2063358;28;20960;-77
2023/02/22 04:44:44;;;;;;;53.20;24.88;;;;;;;-146.25;100.00;52487.81;2071547;28;20054;-77
2023/02/22 04:45:46;;;;;;;55.58;25.33;;;;;;;-146.25;100.00;52457.41;2071282;28;20524;-76
2023/02/22 04:46:47;;;;;;;52.95;23.90;;;;;;;-146.25;100.00;52516.22;2071085;28;24674;-77
2023/02/22 04:47:50;;;;;;;52.63;24.33;;;;;;;-146.25;100.00;52465.53;2071368;28;20286;-77
2023/02/22 04:48:53;;;;;;;53.25;25.00;;;;;;;-146.25;100.00;52500.00;2071299;28;20042;-77
2023/02/22 04:49:59;;;;;;;51.42;25.55;;;;;;;-146.25;100.00;52449.31;2063362;28;20043;-76
2023/02/22 04:51:01;;;;;;;52.00;24.30;;;;;;;-146.25;100.00;52455.38;2063408;28;20843;-76
2023/02/22 04:52:04;;;;;;;45.88;22.92;;;;;;;-146.25;100.00;52473.63;2063079;28;20173;-76
2023/02/22 04:53:09;;;;;;;46.40;22.67;;;;;;;-146.25;100.00;52477.69;2063862;28;20089;-77
2023/02/22 04:54:12;;;;;;;48.83;24.52;;;;;;;-146.25;100.00;52445.25;2070662;28;20927;-77
2023/02/22 04:55:18;;;;;;;47.95;23.48;;;;;;;-146.25;100.00;52465.53;2071180;28;20793;-77
2023/02/22 04:56:20;;;;;;;50.35;24.33;;;;;;;-146.25;100.00;52463.50;2071295;28;20796;-77
2023/02/22 04:57:23;;;;;;;45.70;22.98;;;;;;;-146.25;100.00;52451.31;2063102;28;20816;-77
2023/02/22 04:58:25;;;;;;;47.88;22.80;;;;;;;-146.25;100.00;52485.81;2063095;28;20781;-77
2023/02/22 04:59:27;;;;;;;47.72;23.35;;;;;;;-146.25;100.00;52477.69;2071582;28;27749;-77
2023/02/22 05:00:34;;;;;;;49.63;23.83;;;;;;;-146.25;100.00;52485.81;2063003;28;21038;-77
2023/02/22 05:01:37;;;;;;;48.30;23.30;;;;;;;-146.25;100.00;52485.81;2055426;28;20988;-76
2023/02/22 05:02:39;;;;;;;43.78;22.27;;;;;;;-146.25;100.00;52431.06;2061762;28;36485;-77